createdAt,value
2022-10-05T00:01:31.323Z,3.30
2022-10-05T00:04:22.239Z,3.17
2022-10-05T00:07:17.222Z,3.30
2022-10-05T00:09:50.412Z,3.23
2022-10-05T00:12:21.169Z,3.47
2022-10-05T00:14:53.387Z,2.97
2022-10-05T00:17:30.841Z,3.20
2022-10-05T00:19:57.786Z,3.10
2022-10-05T00:22:32.911Z,3.03
2022-10-05T00:25:10.417Z,2.53
2022-10-05T00:27:38.813Z,3.20
2022-10-05T00:30:19.892Z,3.03
2022-10-05T00:32:47.226Z,3.17
2022-10-05T00:35:16.937Z,3.30
2022-10-05T00:37:45.336Z,3.13
2022-10-05T00:40:33.607Z,2.77
2022-10-05T00:43:20.005Z,3.23
2022-10-05T00:46:22.568Z,3.30
2022-10-05T00:49:49.913Z,3.23
2022-10-05T00:52:36.617Z,3.03
2022-10-05T00:55:56.662Z,3.37
2022-10-05T00:58:57.813Z,2.03
2022-10-05T01:02:02.711Z,3.27
2022-10-05T01:05:12.312Z,2.60
2022-10-05T01:08:12.313Z,3.13
2022-10-05T01:11:09.902Z,3.53
2022-10-05T01:14:17.588Z,3.00
2022-10-05T01:16:58.029Z,3.00
2022-10-05T01:20:06.287Z,3.10
2022-10-05T01:23:22.754Z,3.33
2022-10-05T01:26:24.876Z,3.10
2022-10-05T01:29:40.838Z,3.30
2022-10-05T01:32:41.740Z,3.10
2022-10-05T01:36:02.926Z,3.53
2022-10-05T01:39:09.059Z,4.00
2022-10-05T01:42:09.223Z,3.33
2022-10-05T01:45:18.270Z,3.40
2022-10-05T01:47:58.567Z,2.70
2022-10-05T01:51:11.284Z,3.70
2022-10-05T01:54:39.899Z,3.10
2022-10-05T01:57:50.338Z,3.57
2022-10-05T02:00:19.476Z,3.70
2022-10-05T02:03:19.806Z,3.60
2022-10-05T02:06:04.850Z,3.60
2022-10-05T02:09:01.174Z,3.50
2022-10-05T02:11:28.223Z,3.70
2022-10-05T02:14:08.469Z,3.40
2022-10-05T02:16:48.664Z,3.53
2022-10-05T02:19:41.426Z,3.53
2022-10-05T02:22:49.003Z,3.33
2022-10-05T02:25:34.943Z,3.37
2022-10-05T02:28:14.016Z,3.43
2022-10-05T02:30:55.410Z,3.57
2022-10-05T02:33:32.783Z,3.70
2022-10-05T02:36:34.708Z,2.80
2022-10-05T02:39:31.470Z,3.57
2022-10-05T02:42:49.707Z,3.10
2022-10-05T02:45:27.395Z,3.60
2022-10-05T02:48:14.270Z,4.30
2022-10-05T02:51:22.183Z,3.57
2022-10-05T02:54:30.970Z,3.90
2022-10-05T02:57:21.239Z,3.67
2022-10-05T03:00:10.219Z,3.80
2022-10-05T03:03:06.486Z,4.10
2022-10-05T03:06:00.218Z,3.67
2022-10-05T03:09:05.204Z,2.80
2022-10-05T03:11:48.755Z,3.37
2022-10-05T03:14:53.688Z,2.80
2022-10-05T03:17:28.293Z,2.83
2022-10-05T03:20:17.265Z,3.50
2022-10-05T03:23:02.701Z,3.30
2022-10-05T03:26:06.418Z,3.20
2022-10-05T03:28:48.575Z,3.13
2022-10-05T03:31:27.346Z,3.23
2022-10-05T03:34:33.149Z,3.50
2022-10-05T03:37:34.905Z,3.33
2022-10-05T03:40:34.664Z,3.27
2022-10-05T03:44:17.069Z,3.50
2022-10-05T03:47:33.742Z,3.37
2022-10-05T03:50:42.299Z,2.60
2022-10-05T03:53:29.779Z,3.97
2022-10-05T03:56:29.869Z,3.37
2022-10-05T03:59:12.994Z,2.90
2022-10-05T04:01:57.831Z,3.37
2022-10-05T04:04:38.930Z,3.37
2022-10-05T04:07:14.971Z,2.93
2022-10-05T04:09:46.730Z,3.40
2022-10-05T04:12:32.956Z,3.27
2022-10-05T04:15:42.168Z,3.80
2022-10-05T04:18:25.599Z,4.00
2022-10-05T04:21:02.023Z,3.50
2022-10-05T04:24:31.079Z,3.10
2022-10-05T04:27:03.299Z,4.00
2022-10-05T04:29:44.913Z,4.23
2022-10-05T04:32:36.230Z,4.00
2022-10-05T04:35:38.185Z,4.07
2022-10-05T04:38:52.549Z,4.13
2022-10-05T04:42:03.146Z,4.17
2022-10-05T04:45:02.718Z,4.23
2022-10-05T04:48:09.568Z,4.27
2022-10-05T04:51:04.083Z,4.00
2022-10-05T04:53:50.453Z,4.13
2022-10-05T04:56:33.779Z,4.27
2022-10-05T04:59:37.349Z,4.17
2022-10-05T05:02:43.966Z,4.07
2022-10-05T05:06:12.117Z,4.00
2022-10-05T05:09:16.966Z,4.27
2022-10-05T05:12:30.702Z,4.30
2022-10-05T05:15:43.007Z,4.10
2022-10-05T05:19:05.952Z,4.03
2022-10-05T05:21:53.891Z,4.13
2022-10-05T05:24:59.445Z,3.73
2022-10-05T05:28:11.730Z,4.70
2022-10-05T05:31:12.965Z,4.73
2022-10-05T05:33:58.605Z,4.47
2022-10-05T05:36:49.969Z,4.20
2022-10-05T05:40:07.450Z,3.77
2022-10-05T05:42:59.158Z,3.03
2022-10-05T05:45:44.071Z,3.63
2022-10-05T05:48:25.937Z,3.90
2022-10-05T05:51:03.151Z,4.43
2022-10-05T05:53:40.064Z,4.17
2022-10-05T05:56:21.571Z,4.30
2022-10-05T05:59:01.075Z,3.83
2022-10-05T06:01:43.580Z,4.30
2022-10-05T06:04:38.272Z,4.30
2022-10-05T06:07:09.658Z,3.77
2022-10-05T06:09:49.744Z,4.13
2022-10-05T06:12:27.823Z,4.30
2022-10-05T06:15:38.642Z,4.23
2022-10-05T06:18:15.482Z,4.30
2022-10-05T06:21:06.887Z,4.30
2022-10-05T06:24:15.864Z,4.10
2022-10-05T06:27:27.244Z,4.20
2022-10-05T06:30:17.170Z,4.30
2022-10-05T06:33:37.844Z,4.70
2022-10-05T06:36:50.268Z,4.10
2022-10-05T06:39:51.761Z,3.73
2022-10-05T06:42:55.665Z,3.87
2022-10-05T06:46:26.652Z,4.50
2022-10-05T06:49:24.388Z,4.60
2022-10-05T06:52:29.205Z,4.00
2022-10-05T06:55:59.981Z,3.83
2022-10-05T06:59:03.817Z,4.30
2022-10-05T07:02:05.128Z,3.97
2022-10-05T07:05:35.753Z,3.73
2022-10-05T07:08:47.100Z,3.83
2022-10-05T07:11:57.264Z,3.70
2022-10-05T07:14:58.924Z,4.17
2022-10-05T07:17:45.537Z,3.53
2022-10-05T07:20:16.973Z,6.70
2022-10-05T07:23:22.772Z,3.90
2022-10-05T07:26:09.515Z,4.37
2022-10-05T07:28:48.179Z,3.10
2022-10-05T07:32:01.053Z,3.10
2022-10-05T07:34:49.482Z,3.70
2022-10-05T07:37:58.201Z,2.90
2022-10-05T07:40:47.865Z,3.07
2022-10-05T07:44:02.082Z,3.23
2022-10-05T07:46:52.040Z,2.87
2022-10-05T07:49:35.612Z,3.00
2022-10-05T07:58:46.791Z,2.90
2022-10-05T08:01:37.370Z,2.60
2022-10-05T08:04:51.400Z,3.23
2022-10-05T08:07:18.628Z,2.77
2022-10-05T08:10:39.627Z,2.83
2022-10-05T08:13:53.140Z,2.83
2022-10-05T08:16:23.287Z,2.30
2022-10-05T08:19:18.063Z,2.83
2022-10-05T08:22:19.603Z,2.50
2022-10-05T08:25:34.164Z,2.80
2022-10-05T08:28:35.684Z,2.77
2022-10-05T08:31:40.918Z,2.60
2022-10-05T08:34:31.227Z,2.60
2022-10-05T08:37:35.226Z,2.63
2022-10-05T08:41:41.161Z,2.57
2022-10-05T08:44:36.366Z,2.87
2022-10-05T08:47:10.291Z,2.43
2022-10-05T08:50:23.627Z,2.53
2022-10-05T08:54:17.186Z,2.47
2022-10-05T08:57:28.981Z,2.00
2022-10-05T09:00:34.596Z,2.23
2022-10-05T09:03:48.770Z,1.93
2022-10-05T09:07:06.487Z,1.83
2022-10-05T09:13:58.922Z,2.70
2022-10-05T09:17:25.511Z,2.13
2022-10-05T09:20:00.398Z,2.63
2022-10-05T09:23:38.198Z,2.50
2022-10-05T09:27:11.900Z,2.33
2022-10-05T09:30:20.293Z,2.50
2022-10-05T09:33:38.194Z,2.80
2022-10-05T09:37:33.943Z,2.30
2022-10-05T09:40:41.729Z,2.67
2022-10-05T09:44:47.358Z,2.40
2022-10-05T09:48:21.816Z,2.30
2022-10-05T09:51:22.593Z,2.20
2022-10-05T09:54:47.463Z,2.30
2022-10-05T09:58:37.099Z,2.80
2022-10-05T10:01:33.632Z,2.30
2022-10-05T10:05:31.305Z,2.10
2022-10-05T10:08:28.458Z,2.30
2022-10-05T10:11:11.931Z,3.17
2022-10-05T10:14:34.365Z,2.57
2022-10-05T10:18:11.175Z,2.57
2022-10-05T10:20:58.299Z,2.40
2022-10-05T10:23:55.056Z,2.93
2022-10-05T10:27:09.798Z,2.87
2022-10-05T10:29:42.876Z,2.40
2022-10-05T10:33:16.719Z,2.87
2022-10-05T10:36:00.461Z,2.67
2022-10-05T10:39:02.735Z,2.67
2022-10-05T10:42:01.365Z,2.50
2022-10-05T10:45:38.178Z,2.30
2022-10-05T10:48:30.007Z,2.40
2022-10-05T10:52:13.672Z,2.72
2022-10-05T10:55:18.066Z,2.80
2022-10-05T10:58:42.500Z,2.83
2022-10-05T11:01:59.916Z,2.60
2022-10-05T11:04:54.755Z,2.78
2022-10-05T11:08:02.023Z,2.42
2022-10-05T11:10:58.853Z,2.40
2022-10-05T11:14:14.417Z,2.80
2022-10-05T11:17:31.698Z,2.90
2022-10-05T11:20:49.659Z,2.50
2022-10-05T11:24:29.869Z,2.60
2022-10-05T11:27:48.700Z,2.75
2022-10-05T11:31:11.171Z,2.67
2022-10-05T11:34:31.749Z,2.60
2022-10-05T11:37:41.663Z,2.45
2022-10-05T11:41:17.889Z,2.53
2022-10-05T11:44:07.224Z,2.45
2022-10-05T11:47:13.072Z,2.88
2022-10-05T11:50:32.443Z,2.80
2022-10-05T11:53:36.347Z,2.92
2022-10-05T11:57:02.732Z,2.53
2022-10-05T11:59:59.358Z,2.85
2022-10-05T12:03:16.808Z,3.25
2022-10-05T12:06:24.449Z,2.90
2022-10-05T12:09:29.737Z,2.17
2022-10-05T12:12:27.237Z,2.47
2022-10-05T12:15:47.176Z,2.65
2022-10-05T12:18:34.097Z,2.83
2022-10-05T12:21:52.184Z,2.45
2022-10-05T12:25:36.616Z,2.70
2022-10-05T12:28:19.190Z,3.08
2022-10-05T12:31:36.820Z,2.78
2022-10-05T12:35:43.971Z,2.78
2022-10-05T12:38:38.041Z,2.78
2022-10-05T12:41:24.746Z,2.53
2022-10-05T12:48:21.764Z,2.72
2022-10-05T12:51:22.986Z,2.30
2022-10-05T12:54:03.909Z,2.40
2022-10-05T12:57:07.538Z,2.83
2022-10-05T13:00:28.869Z,2.22
2022-10-05T13:03:26.899Z,2.28
2022-10-05T13:06:45.574Z,2.55
2022-10-05T13:10:02.828Z,2.30
2022-10-05T13:13:19.188Z,2.30
2022-10-05T13:16:01.787Z,1.90
2022-10-05T13:19:02.981Z,1.67
2022-10-05T13:22:08.605Z,1.73
2022-10-05T13:25:17.570Z,1.88
2022-10-05T13:28:22.364Z,1.80
2022-10-05T13:31:20.041Z,1.30
2022-10-05T13:34:46.714Z,1.42
2022-10-05T13:37:45.880Z,1.40
2022-10-05T13:40:57.777Z,1.98
2022-10-05T13:44:14.236Z,1.40
2022-10-05T13:47:06.930Z,2.35
2022-10-05T13:50:02.401Z,1.70
2022-10-05T13:53:21.833Z,1.27
2022-10-05T13:56:12.570Z,1.67
2022-10-05T13:58:54.723Z,1.52
2022-10-05T14:01:56.309Z,1.50
2022-10-05T14:04:42.232Z,1.50
2022-10-05T14:08:01.468Z,1.17
2022-10-05T14:10:47.550Z,1.50
2022-10-05T14:13:46.728Z,1.58
2022-10-05T14:16:13.660Z,1.67
2022-10-05T14:19:07.556Z,1.55
2022-10-05T14:21:53.876Z,1.48
2022-10-05T14:24:44.888Z,1.85
2022-10-05T14:27:28.073Z,1.27
2022-10-05T14:30:23.681Z,1.60
2022-10-05T14:33:17.643Z,1.40
2022-10-05T14:35:56.068Z,1.60
2022-10-05T14:38:58.006Z,1.35
2022-10-05T14:41:27.500Z,1.50
2022-10-05T14:44:15.503Z,1.52
2022-10-05T14:47:04.359Z,1.55
2022-10-05T14:49:37.019Z,1.15
2022-10-05T14:52:32.654Z,1.67
2022-10-05T14:55:37.317Z,1.80
2022-10-05T14:59:04.108Z,1.70
2022-10-05T15:01:40.287Z,1.83
2022-10-05T15:04:44.433Z,1.80
2022-10-05T15:07:38.869Z,1.90
2022-10-05T15:10:26.916Z,1.98
2022-10-05T15:13:11.487Z,2.25
2022-10-05T15:16:29.536Z,1.63
2022-10-05T15:19:31.185Z,2.10
2022-10-05T15:22:28.422Z,2.08
2022-10-05T15:25:14.597Z,2.30
2022-10-05T15:28:08.809Z,1.70
2022-10-05T15:30:47.821Z,1.58
2022-10-05T15:33:55.422Z,2.00
2022-10-05T15:36:35.622Z,1.60
2022-10-05T15:39:46.890Z,1.20
2022-10-05T15:42:33.251Z,1.73
2022-10-05T15:45:33.745Z,1.67
2022-10-05T15:48:06.375Z,2.00
2022-10-05T15:51:50.089Z,1.90
2022-10-05T15:55:07.927Z,1.70
2022-10-05T15:58:08.370Z,1.75
2022-10-05T16:00:51.794Z,2.30
2022-10-05T16:03:48.391Z,1.77
2022-10-05T16:07:10.016Z,1.80
2022-10-05T16:10:15.812Z,1.80
2022-10-05T16:13:27.041Z,1.92
2022-10-05T16:16:20.829Z,1.77
2022-10-05T16:19:18.438Z,1.77
2022-10-05T16:22:43.346Z,2.10
2022-10-05T16:25:36.351Z,2.38
2022-10-05T16:28:22.387Z,2.70
2022-10-05T16:31:47.100Z,2.15
2022-10-05T16:34:55.866Z,2.35
2022-10-05T16:38:12.849Z,2.37
2022-10-05T16:41:37.772Z,2.87
2022-10-05T16:44:29.930Z,2.70
2022-10-05T16:47:38.987Z,3.22
2022-10-05T16:50:43.057Z,3.00
2022-10-05T16:53:27.504Z,3.50
2022-10-05T16:56:07.563Z,4.13
2022-10-05T16:58:56.496Z,4.18
2022-10-05T17:02:16.315Z,3.93
2022-10-05T17:05:15.645Z,5.70
2022-10-05T17:08:17.950Z,3.95
2022-10-05T17:11:17.033Z,3.30
2022-10-05T17:14:20.473Z,2.63
2022-10-05T17:17:26.452Z,3.07
2022-10-05T17:20:23.560Z,2.85
2022-10-05T17:23:02.187Z,2.80
2022-10-05T17:25:45.845Z,2.77
2022-10-05T17:28:15.799Z,2.70
2022-10-05T17:31:17.490Z,3.00
2022-10-05T17:33:59.643Z,2.72
2022-10-05T17:37:27.565Z,2.85
2022-10-05T17:39:57.437Z,3.00
2022-10-05T17:42:46.508Z,2.93
2022-10-05T17:45:19.408Z,3.13
2022-10-05T17:48:11.725Z,3.10
2022-10-05T17:51:05.041Z,3.10
2022-10-05T17:54:02.579Z,3.17
2022-10-05T17:56:49.363Z,3.17
2022-10-05T17:59:55.599Z,3.10
2022-10-05T18:02:40.010Z,3.10
2022-10-05T18:05:12.703Z,3.10
2022-10-05T18:08:07.609Z,3.33
2022-10-05T18:10:39.004Z,2.93
2022-10-05T18:13:37.038Z,3.70
2022-10-05T18:16:04.588Z,3.73
2022-10-05T18:18:44.869Z,3.60
2022-10-05T18:21:17.114Z,4.00
2022-10-05T18:23:52.517Z,3.97
2022-10-05T18:26:46.528Z,3.77
2022-10-05T18:30:01.240Z,4.80
2022-10-05T18:33:19.252Z,4.00
2022-10-05T18:36:07.065Z,3.70
2022-10-05T18:38:45.296Z,3.80
2022-10-05T18:41:45.361Z,3.47
2022-10-05T18:44:12.076Z,3.40
2022-10-05T18:47:25.831Z,3.67
2022-10-05T18:50:33.654Z,3.67
2022-10-05T18:53:28.210Z,3.60
2022-10-05T18:56:48.557Z,3.67
2022-10-05T18:59:46.371Z,3.50
2022-10-05T19:02:34.971Z,3.67
2022-10-05T19:05:56.720Z,3.37
2022-10-05T19:09:22.368Z,3.70
2022-10-05T19:12:22.035Z,4.10
2022-10-05T19:15:12.039Z,3.40
2022-10-05T19:18:41.407Z,3.90
2022-10-05T19:21:42.442Z,3.47
2022-10-05T19:24:48.525Z,3.80
2022-10-05T19:28:06.897Z,3.50
2022-10-05T19:31:11.706Z,3.30
2022-10-05T19:34:34.390Z,3.53
2022-10-05T19:37:30.905Z,3.63
2022-10-05T19:40:18.390Z,3.20
2022-10-05T19:43:06.765Z,3.33
2022-10-05T19:45:54.772Z,3.40
2022-10-05T19:48:40.399Z,3.40
2022-10-05T19:51:36.909Z,3.63
2022-10-05T19:54:25.757Z,3.47
2022-10-05T19:56:54.843Z,3.40
2022-10-05T19:59:31.285Z,3.80
2022-10-05T20:01:59.489Z,3.60
2022-10-05T20:04:43.490Z,3.50
2022-10-05T20:07:21.457Z,2.87
2022-10-05T20:10:22.058Z,3.53
2022-10-05T20:13:00.007Z,3.40
2022-10-05T20:15:53.430Z,3.07
2022-10-05T20:19:02.402Z,3.37
2022-10-05T20:21:49.951Z,3.43
2022-10-05T20:24:26.432Z,3.10
2022-10-05T20:27:02.438Z,2.97
2022-10-05T20:29:35.693Z,3.00
2022-10-05T20:32:12.102Z,3.10
2022-10-05T20:34:46.907Z,4.00
2022-10-05T20:37:17.835Z,3.10
2022-10-05T20:39:45.397Z,3.23
2022-10-05T20:42:12.322Z,3.50
2022-10-05T20:44:39.558Z,2.87
2022-10-05T20:47:09.755Z,3.13
2022-10-05T20:49:40.960Z,2.57
2022-10-05T20:52:10.414Z,2.50
2022-10-05T20:54:39.269Z,3.10
2022-10-05T20:57:08.649Z,2.60
2022-10-05T20:59:37.246Z,2.20
2022-10-05T21:02:05.461Z,2.37
2022-10-05T21:04:40.191Z,2.20
2022-10-05T21:07:08.653Z,2.20
2022-10-05T21:09:38.250Z,2.63
2022-10-05T21:12:05.435Z,2.23
2022-10-05T21:14:34.268Z,2.20
2022-10-05T21:17:02.062Z,2.57
2022-10-05T21:19:29.614Z,2.00
2022-10-05T21:21:59.500Z,2.30
2022-10-05T21:24:26.560Z,2.40
2022-10-05T21:26:57.626Z,2.27
2022-10-05T21:29:24.689Z,2.30
2022-10-05T21:31:52.050Z,2.27
2022-10-05T21:34:19.242Z,2.40
2022-10-05T21:36:46.136Z,2.00
2022-10-05T21:39:13.224Z,2.10
2022-10-05T21:41:42.965Z,2.50
2022-10-05T21:44:10.076Z,2.00
2022-10-05T21:46:37.975Z,2.37
2022-10-05T21:49:07.344Z,1.90
2022-10-05T21:51:35.533Z,2.17
2022-10-05T21:54:11.221Z,2.20
2022-10-05T21:56:44.034Z,2.03
2022-10-05T21:59:15.408Z,2.00
2022-10-05T22:01:42.348Z,2.27
2022-10-05T22:04:09.614Z,2.40
2022-10-05T22:06:36.720Z,2.30
2022-10-05T22:09:06.085Z,2.43
2022-10-05T22:11:33.919Z,2.10
2022-10-05T22:14:03.726Z,2.00
2022-10-05T22:16:43.729Z,2.40
2022-10-05T22:19:19.222Z,2.40
2022-10-05T22:21:46.178Z,2.30
2022-10-05T22:24:13.137Z,2.40
2022-10-05T22:26:45.976Z,2.20
2022-10-05T22:29:14.617Z,2.80
2022-10-05T22:31:42.134Z,2.77
2022-10-05T22:34:09.086Z,2.67
2022-10-05T22:36:37.247Z,2.40
2022-10-05T22:39:04.548Z,2.53
2022-10-05T22:41:31.523Z,2.10
2022-10-05T22:43:58.645Z,2.30
2022-10-05T22:46:25.693Z,2.23
2022-10-05T22:48:52.705Z,2.20
2022-10-05T22:51:19.631Z,2.57
2022-10-05T22:53:46.554Z,2.10
2022-10-05T22:56:15.225Z,2.20
2022-10-05T22:58:43.275Z,1.97
2022-10-05T23:01:16.867Z,1.90
2022-10-05T23:03:45.308Z,1.93
2022-10-05T23:06:17.695Z,2.00
2022-10-05T23:08:46.013Z,1.80
2022-10-05T23:11:22.499Z,2.10
2022-10-05T23:13:52.240Z,2.00
2022-10-05T23:16:22.795Z,2.00
2022-10-05T23:18:52.198Z,2.23
2022-10-05T23:21:22.086Z,2.10
2022-10-05T23:23:53.603Z,2.00
2022-10-05T23:26:24.191Z,1.80
2022-10-05T23:28:51.483Z,2.13
2022-10-05T23:31:23.873Z,1.80
2022-10-05T23:33:52.601Z,1.90
2022-10-05T23:36:26.877Z,2.00
2022-10-05T23:38:54.435Z,2.30
2022-10-05T23:41:21.719Z,2.37
2022-10-05T23:43:48.794Z,2.27
2022-10-05T23:46:17.523Z,2.20
2022-10-05T23:48:44.626Z,2.23
2022-10-05T23:51:14.393Z,2.23
2022-10-05T23:53:41.350Z,2.73
2022-10-05T23:56:08.637Z,2.60
2022-10-05T23:58:35.556Z,2.50
